Airfield :
LOGIN :

Register | Disclaimer

   EN    FR    IT 

 










Legend :    VFR   Marginal VFR   IFR   Intensive IFR   Very Intensive IFR
Visi :
Ceiling :
>= 8 km
>= 3000ft
5 to 8 km
1000 to 3000 ft
1500m to 5 km
500 to 1000 ft
800 to 1500m
200 to 500 ft
< 800m
< 200 ft
Symbols :   Thunderstorms  Fog  Heavy snow  Heavy precipitations  Wind > 20 kt
SIGMETs :     Misc.  Thunderstorms  Icing  Turbulence  Mountain Waves  Volcanic Ashes






- Airport Elevation : 961 ft
- IATA code : VIN


UKWW - Gavryshivka

CURRENT METAR :
  • 281500Z 16004MPS 9999 NSC 03/M00 Q1007 NOSIG

EXPIRED METARs :
  • 281430Z 17003MPS CAVOK 05/00 Q1007 NOSIG
  • 281400Z 18004MPS CAVOK 06/01 Q1007 NOSIG
  • 281330Z 18003MPS CAVOK 06/01 Q1007 NOSIG
  • 281300Z 19003MPS CAVOK 06/00 Q1008 NOSIG
  • 281230Z 20003MPS CAVOK 06/M00 Q1008 NOSIG

TAF AMD TAF UKWW
Valid from the 28 at 15:00 until the 29 at 00:00 UTC


281530Z 2815/2824 16005MPS 2000 BR OVC005 TXM00/2815Z TNM02/2824Z
TEMPO 2815/2824 0400 FZFG VV002



MET'MAP, your aeronautical weather chart ! - Copyright ORBIFLY December 2007 - Disclaimer

ORBIFLY MET'MAP TEAM :

Programming & Development : Alexandra Zaïnal
Concept & original design : Baudouin d'Aumeries
Assistance for programming : Marc-Olivier Méhu
Technical & hardware support : Manuel Goepfert

Contact : metmap@orbifly.com




SOURCES & CREDITS :

   NOAA